createdAt,value
2019-02-03T00:01:36.054Z,8.94
2019-02-03T00:05:44.468Z,9.01
2019-02-03T00:09:52.486Z,8.86
2019-02-03T00:14:01.000Z,9.05
2019-02-03T00:18:08.967Z,8.98
2019-02-03T00:22:17.211Z,9.14
2019-02-03T00:26:25.283Z,8.91
2019-02-03T00:30:33.711Z,9.08
2019-02-03T00:34:41.591Z,9.17
2019-02-03T00:38:50.251Z,9.11
2019-02-03T00:42:58.272Z,9.01
2019-02-03T00:47:06.785Z,8.96
2019-02-03T00:51:14.722Z,8.83
2019-02-03T00:55:22.597Z,8.65
2019-02-03T00:59:30.534Z,8.64
2019-02-03T01:03:38.468Z,8.68
2019-02-03T01:07:46.804Z,8.63
2019-02-03T01:11:54.886Z,8.71
2019-02-03T01:16:03.146Z,8.63
2019-02-03T01:20:13.428Z,8.69
2019-02-03T01:24:20.974Z,8.67
2019-02-03T01:28:28.754Z,8.54
2019-02-03T01:32:36.691Z,8.44
2019-02-03T01:36:44.774Z,8.24
2019-02-03T01:40:52.499Z,8.43
2019-02-03T01:45:00.563Z,8.37
2019-02-03T01:49:08.753Z,8.35
2019-02-03T01:53:16.777Z,8.34
2019-02-03T01:57:24.547Z,8.26
2019-02-03T02:01:33.002Z,8.23
2019-02-03T02:05:42.182Z,8.14
2019-02-03T02:09:50.256Z,8.11
2019-02-03T02:13:58.300Z,8.01
2019-02-03T02:18:06.339Z,7.98
2019-02-03T02:22:14.770Z,7.96
2019-02-03T02:26:22.688Z,7.95
2019-02-03T02:30:30.500Z,7.88
2019-02-03T02:34:38.683Z,7.79
2019-02-03T02:38:46.838Z,7.80
2019-02-03T02:42:54.666Z,7.82
2019-02-03T02:47:02.617Z,7.75
2019-02-03T02:51:10.800Z,7.52
2019-02-03T02:55:18.925Z,7.70
2019-02-03T02:59:27.219Z,7.72
2019-02-03T03:03:35.179Z,7.69
2019-02-03T03:07:44.449Z,7.63
2019-02-03T03:11:52.875Z,7.64
2019-02-03T03:16:01.004Z,7.62
2019-02-03T03:20:10.126Z,7.53
2019-02-03T03:24:18.912Z,7.55
2019-02-03T03:28:27.942Z,7.54
2019-02-03T03:32:36.765Z,7.50
2019-02-03T03:36:45.035Z,7.55
2019-02-03T03:40:52.829Z,7.53
2019-02-03T03:45:01.055Z,7.55
2019-02-03T03:49:09.008Z,7.61
2019-02-03T03:53:18.282Z,7.55
2019-02-03T03:57:27.242Z,7.54
2019-02-03T04:01:35.757Z,7.60
2019-02-03T04:05:43.979Z,7.59
2019-02-03T04:09:52.183Z,7.55
2019-02-03T04:14:00.257Z,7.47
2019-02-03T04:18:10.070Z,7.56
2019-02-03T04:22:18.497Z,7.66
2019-02-03T04:26:26.173Z,7.79
2019-02-03T04:30:35.943Z,7.94
2019-02-03T04:34:43.731Z,7.90
2019-02-03T04:38:58.176Z,7.99
2019-02-03T04:43:02.768Z,8.22
2019-02-03T04:47:10.768Z,8.34
2019-02-03T04:51:18.616Z,8.45
2019-02-03T04:55:26.552Z,8.49
2019-02-03T04:59:36.024Z,8.62
2019-02-03T05:03:44.056Z,8.64
2019-02-03T05:07:52.292Z,8.75
2019-02-03T05:12:00.728Z,8.86
2019-02-03T05:16:09.215Z,8.75
2019-02-03T05:20:18.768Z,8.84
2019-02-03T05:24:27.109Z,8.82
2019-02-03T05:28:35.228Z,8.84
2019-02-03T05:32:43.201Z,8.67
2019-02-03T05:36:51.532Z,8.49
2019-02-03T05:40:59.330Z,8.41
2019-02-03T05:45:09.088Z,8.19
2019-02-03T05:49:16.906Z,8.14
2019-02-03T05:53:25.406Z,8.41
2019-02-03T05:57:33.933Z,8.27
2019-02-03T06:01:41.682Z,8.14
2019-02-03T06:05:49.819Z,8.16
2019-02-03T06:09:57.577Z,8.05
2019-02-03T06:14:05.604Z,8.05
2019-02-03T06:18:16.462Z,8.17
2019-02-03T06:22:24.693Z,8.22
2019-02-03T06:26:32.626Z,8.35
2019-02-03T06:31:09.038Z,8.44
2019-02-03T06:35:17.064Z,8.61
2019-02-03T06:39:24.867Z,9.00
2019-02-03T06:43:32.887Z,9.30
2019-02-03T06:47:40.688Z,9.69
2019-02-03T06:51:48.426Z,10.38
2019-02-03T06:55:57.677Z,10.94
2019-02-03T07:00:07.674Z,11.38
2019-02-03T07:04:15.397Z,11.67
2019-02-03T07:08:23.382Z,11.92
2019-02-03T07:12:31.995Z,12.00
2019-02-03T07:16:42.725Z,11.92
2019-02-03T07:20:53.047Z,11.67
2019-02-03T07:25:03.044Z,11.60
2019-02-03T07:29:11.095Z,11.62
2019-02-03T07:33:19.131Z,11.56
2019-02-03T07:37:26.876Z,11.50
2019-02-03T07:41:34.723Z,11.67
2019-02-03T07:45:42.370Z,11.96
2019-02-03T07:49:50.395Z,12.33
2019-02-03T07:54:08.109Z,12.66
2019-02-03T07:58:08.599Z,13.16
2019-02-03T08:02:18.855Z,13.42
2019-02-03T08:06:28.007Z,13.63
2019-02-03T08:10:35.999Z,13.43
2019-02-03T08:14:43.823Z,13.81
2019-02-03T08:18:51.614Z,14.01
2019-02-03T08:22:59.652Z,13.45
2019-02-03T08:27:08.290Z,13.19
2019-02-03T08:31:16.783Z,13.07
2019-02-03T08:35:24.707Z,13.02
2019-02-03T08:39:32.440Z,12.97
2019-02-03T08:43:40.369Z,13.01
2019-02-03T08:47:48.486Z,13.03
2019-02-03T08:51:56.518Z,13.10
2019-02-03T08:56:04.156Z,13.49
2019-02-03T09:00:15.508Z,13.30
2019-02-03T09:04:23.230Z,13.56
2019-02-03T09:08:31.309Z,14.22
2019-02-03T09:12:39.037Z,14.66
2019-02-03T09:16:47.047Z,15.33
2019-02-03T09:20:56.118Z,15.64
2019-02-03T09:25:04.495Z,15.63
2019-02-03T09:29:12.411Z,16.27
2019-02-03T09:33:20.473Z,15.96
2019-02-03T09:37:29.685Z,15.96
2019-02-03T09:41:38.939Z,16.33
2019-02-03T09:45:46.711Z,16.79
2019-02-03T09:49:54.748Z,16.93
2019-02-03T09:54:02.931Z,16.93
2019-02-03T09:58:12.266Z,16.80
2019-02-03T10:02:20.132Z,17.38
2019-02-03T10:06:28.185Z,17.77
2019-02-03T10:10:38.177Z,17.91
2019-02-03T10:14:45.921Z,17.90
2019-02-03T10:18:53.981Z,18.26
2019-02-03T10:23:01.989Z,18.51
2019-02-03T10:27:10.384Z,18.31
2019-02-03T10:31:18.120Z,18.34
2019-02-03T10:35:27.487Z,19.00
2019-02-03T10:39:35.408Z,18.65
2019-02-03T10:43:43.140Z,18.41
2019-02-03T10:47:51.375Z,18.13
2019-02-03T10:51:59.109Z,17.69
2019-02-03T10:56:06.903Z,17.59
2019-02-03T11:04:26.702Z,17.70
2019-02-03T11:08:34.303Z,17.89
2019-02-03T11:12:42.386Z,18.05
2019-02-03T11:16:50.167Z,18.14
2019-02-03T11:20:57.994Z,18.30
2019-02-03T11:25:06.673Z,18.01
2019-02-03T11:29:14.434Z,17.94
2019-02-03T11:33:22.599Z,17.98
2019-02-03T11:37:30.424Z,18.07
2019-02-03T11:41:48.610Z,17.92
2019-02-03T11:45:47.660Z,17.87
2019-02-03T11:49:55.991Z,18.08
2019-02-03T11:54:03.759Z,18.10
2019-02-03T11:58:13.112Z,18.02
2019-02-03T12:02:21.917Z,18.20
2019-02-03T12:06:31.402Z,18.37
2019-02-03T12:10:39.329Z,18.48
2019-02-03T12:14:50.459Z,18.71
2019-02-03T12:18:58.294Z,18.91
2019-02-03T12:23:06.310Z,19.16
2019-02-03T12:27:14.347Z,19.26
2019-02-03T12:31:28.821Z,19.57
2019-02-03T12:35:38.864Z,19.26
2019-02-03T12:39:48.083Z,19.20
2019-02-03T12:43:56.816Z,19.30
2019-02-03T12:48:06.603Z,19.20
2019-02-03T12:52:14.310Z,19.07
2019-02-03T12:56:30.601Z,18.93
2019-02-03T13:00:39.179Z,18.80
2019-02-03T13:04:49.213Z,18.98
2019-02-03T13:09:05.848Z,18.72
2019-02-03T13:13:16.439Z,18.74
2019-02-03T13:17:25.877Z,19.04
2019-02-03T13:21:36.537Z,18.76
2019-02-03T13:25:47.264Z,18.68
2019-02-03T13:29:58.636Z,18.81
2019-02-03T13:34:09.834Z,19.04
2019-02-03T13:38:19.759Z,18.39
2019-02-03T13:42:36.963Z,18.30
2019-02-03T13:46:43.776Z,18.14
2019-02-03T13:50:54.545Z,18.22
2019-02-03T13:55:01.914Z,18.02
2019-02-03T13:59:09.527Z,17.92
2019-02-03T14:03:20.625Z,17.91
2019-02-03T14:07:37.128Z,17.92
2019-02-03T14:11:48.811Z,17.83
2019-02-03T14:15:59.231Z,17.45
2019-02-03T14:20:19.009Z,17.25
2019-02-03T14:24:32.965Z,17.14
2019-02-03T14:28:41.020Z,17.06
2019-02-03T14:32:48.947Z,16.82
2019-02-03T14:36:57.902Z,16.65
2019-02-03T14:41:16.886Z,16.60
2019-02-03T14:45:27.510Z,16.43
2019-02-03T14:49:38.874Z,16.37
2019-02-03T14:53:50.858Z,16.14
2019-02-03T14:58:10.188Z,16.13
2019-02-03T15:02:25.103Z,15.95
2019-02-03T15:06:43.526Z,15.84
2019-02-03T15:10:57.030Z,15.72
2019-02-03T15:15:06.176Z,15.49
2019-02-03T15:19:19.221Z,15.49
2019-02-03T15:23:32.308Z,15.20
2019-02-03T15:27:40.039Z,14.87
2019-02-03T15:31:53.825Z,15.17
2019-02-03T15:36:01.541Z,14.99
2019-02-03T15:40:13.488Z,14.65
2019-02-03T15:44:21.384Z,14.25
2019-02-03T15:48:29.107Z,14.05
2019-02-03T15:52:40.884Z,13.84
2019-02-03T15:56:51.379Z,13.81
2019-02-03T16:01:04.007Z,13.79
2019-02-03T16:05:31.912Z,13.78
2019-02-03T16:09:42.165Z,13.66
2019-02-03T16:13:55.200Z,13.92
2019-02-03T16:18:04.937Z,13.75
2019-02-03T16:22:12.702Z,13.37
2019-02-03T16:26:24.041Z,13.14
2019-02-03T16:30:37.459Z,12.92
2019-02-03T16:34:50.682Z,12.94
2019-02-03T16:39:05.618Z,12.63
2019-02-03T16:43:13.615Z,12.70
2019-02-03T16:47:23.170Z,12.77
2019-02-03T16:51:31.304Z,12.73
2019-02-03T16:55:44.145Z,12.50
2019-02-03T17:00:07.310Z,12.48
2019-02-03T17:04:15.169Z,12.47
2019-02-03T17:08:23.128Z,12.32
2019-02-03T17:12:53.598Z,12.27
2019-02-03T17:17:03.303Z,12.18
2019-02-03T17:21:10.856Z,12.26
2019-02-03T17:25:23.853Z,12.13
2019-02-03T17:29:33.645Z,12.29
2019-02-03T17:33:45.974Z,12.26
2019-02-03T17:37:54.124Z,12.13
2019-02-03T17:42:10.948Z,12.25
2019-02-03T17:46:19.828Z,12.22
2019-02-03T17:50:29.105Z,12.08
2019-02-03T17:54:37.057Z,12.10
2019-02-03T17:58:50.004Z,11.99
2019-02-03T18:03:04.624Z,11.85
2019-02-03T18:07:14.537Z,11.88
2019-02-03T18:11:30.902Z,11.79
2019-02-03T18:15:46.232Z,11.68
2019-02-03T18:19:56.109Z,11.69
2019-02-03T18:24:07.760Z,11.49
2019-02-03T18:28:16.828Z,11.58
2019-02-03T18:32:24.363Z,11.65
2019-02-03T18:36:41.581Z,11.58
2019-02-03T18:40:49.698Z,11.58
2019-02-03T18:45:02.111Z,11.47
2019-02-03T18:49:24.105Z,11.40
2019-02-03T18:53:33.894Z,11.40
2019-02-03T18:57:43.166Z,11.46
2019-02-03T19:01:54.018Z,11.41
2019-02-03T19:06:04.050Z,11.42
2019-02-03T19:10:18.079Z,11.46
2019-02-03T19:14:27.935Z,11.45
2019-02-03T19:18:38.498Z,11.45
2019-02-03T19:22:49.456Z,11.50
2019-02-03T19:27:03.619Z,11.46
2019-02-03T19:31:14.719Z,11.52
2019-02-03T19:35:28.819Z,11.44
2019-02-03T19:39:37.990Z,11.54
2019-02-03T19:43:47.067Z,11.48
2019-02-03T19:47:59.115Z,11.47
2019-02-03T19:52:07.545Z,11.44
2019-02-03T19:56:19.702Z,11.40
2019-02-03T20:00:35.371Z,11.39
2019-02-03T20:04:46.737Z,11.29
2019-02-03T20:08:56.985Z,11.16
2019-02-03T20:13:10.603Z,11.02
2019-02-03T20:17:38.657Z,11.01
2019-02-03T20:22:01.790Z,10.89
2019-02-03T20:26:12.561Z,10.83
2019-02-03T20:30:35.860Z,10.82
2019-02-03T20:34:35.350Z,10.63
2019-02-03T20:38:43.319Z,10.64
2019-02-03T20:42:56.797Z,10.48
2019-02-03T20:47:07.506Z,10.52
2019-02-03T20:51:16.521Z,10.40
2019-02-03T20:55:24.365Z,10.39
2019-02-03T20:59:35.701Z,10.28
2019-02-03T21:03:45.866Z,10.18
2019-02-03T21:07:56.048Z,10.16
2019-02-03T21:12:07.488Z,10.24
2019-02-03T21:16:15.416Z,10.14
2019-02-03T21:20:25.003Z,10.03
2019-02-03T21:24:32.524Z,10.05
2019-02-03T21:28:43.535Z,10.07
2019-02-03T21:32:51.673Z,9.95
2019-02-03T21:37:03.957Z,9.99
2019-02-03T21:41:18.471Z,10.00
2019-02-03T21:45:28.965Z,9.97
2019-02-03T21:49:37.903Z,9.86
2019-02-03T21:53:45.415Z,9.85
2019-02-03T21:57:53.365Z,9.91
2019-02-03T22:02:04.981Z,9.94
2019-02-03T22:06:14.297Z,9.93
2019-02-03T22:10:28.249Z,9.91
2019-02-03T22:14:35.941Z,9.97
2019-02-03T22:18:43.859Z,9.85
2019-02-03T22:22:55.000Z,9.78
2019-02-03T22:27:04.002Z,9.78
2019-02-03T22:31:13.155Z,9.78
2019-02-03T22:35:21.833Z,9.73
2019-02-03T22:39:36.664Z,9.71
2019-02-03T22:43:44.389Z,9.70
2019-02-03T22:47:52.295Z,9.75
2019-02-03T22:52:00.199Z,9.69
2019-02-03T22:56:10.227Z,9.67
2019-02-03T23:01:02.334Z,9.64
2019-02-03T23:05:11.590Z,9.63
2019-02-03T23:09:34.458Z,9.63
2019-02-03T23:13:42.085Z,9.65
2019-02-03T23:17:49.816Z,9.64
2019-02-03T23:21:57.762Z,9.58
2019-02-03T23:26:06.001Z,9.61
2019-02-03T23:30:15.095Z,9.59
2019-02-03T23:34:23.057Z,9.52
2019-02-03T23:38:31.062Z,9.53
2019-02-03T23:42:39.443Z,9.47
2019-02-03T23:46:47.435Z,9.46
2019-02-03T23:50:55.470Z,9.53
2019-02-03T23:55:05.113Z,9.52
2019-02-03T23:59:12.787Z,9.37
